Byron Hills, Illinois
Current Conditions -  °F | °C
As of 9:52 AM on Saturday 25 Oct 2014 (Local Time) from KDVN Reporting Station
Clear Clear  
Wind Chill: 16°   Ceiling: Unl
Heat Index: 16°   Visibility: 10mi
Dew Point: 10°   Wind: 10mph
Humidity: 69%   Direction: 330°NNW
Pressure: 30.03"   Gusts: NA
Location:  41.595°N, 90.2974°W
Report Text: KDVN 251452Z AUTO 33009KT 10SM CLR 16/10 A3003 RMK AO2 SLP170 T01560100 51020 TSNO
Loading
Personal Weather Stations






























Interactive Weather Map
Tropical Storm Tracking
New forecast layout! Learn more

10-Day Weather Forecast

Advertisements
Track Severe Weather on mobile